^^
Station Historical Data
 
Daily Summary for February 23, 2018 Units:  English    Metric   Both
« Previous Day
Next Day »
Daily Weekly Monthly Yearly Custom
  Current: High: Low: Average:
Temperature: 66.4 °F TemperatureF °F 54.5 °F 64.7 °F
Dew Point: 58.6 °F DewpointF °F 53.4 °F 58.2 °F
Humidity: 76% Humidity% 56% 81%
Wind Speed: 0.0mph WindSpeedMPHmph 0.0mph 0.2mph
Wind Gust: 0.0mph WindSpeedGustMPHmph - -
WindCalm - - SE
Pressure: 30.28 in PressureIn in 30.27 in -
Precipitation: 0.00 in      
Historical Graphs
 
 
Tabular Data for February 23, 2018
Time Temperature Dew Point Pressure Wind Wind Speed Wind Gust Humidity Rainfall Rate (Hourly)
TemperatureF °F DewpointF °F PressureIn in Calm     Humidity% HourlyPrecipIn in
00:03 61.0 °F 58.3 °F 30.39 in Calm     91% 0.00 in
00:09 60.6 °F 57.9 °F 30.39 in Calm     91% 0.00 in
00:14 60.4 °F 57.7 °F 30.39 in Calm     91% 0.00 in
00:19 60.4 °F 58.1 °F 30.39 in Calm     92% 0.00 in
00:24 60.4 °F 58.1 °F 30.39 in Calm     92% 0.00 in
00:30 60.3 °F 57.9 °F 30.39 in Calm     92% 0.00 in
00:36 60.3 °F 57.9 °F 30.39 in Calm     92% 0.00 in
00:41 60.1 °F 57.7 °F 30.39 in Calm     92% 0.00 in
00:46 59.9 °F 57.6 °F 30.39 in Calm     92% 0.00 in
00:51 59.9 °F 57.9 °F 30.39 in Calm     93% 0.00 in
00:57 59.7 °F 57.7 °F 30.39 in Calm     93% 0.00 in
01:03 59.7 °F 57.7 °F 30.39 in Calm     93% 0.00 in
01:08 59.5 °F 57.6 °F 30.39 in Calm     93% 0.00 in
01:13 59.7 °F 57.7 °F 30.39 in ESE 0.9 mph 1.0 mph 93% 0.00 in
01:18 60.1 °F 58.3 °F 30.39 in Calm     94% 0.00 in
01:24 60.4 °F 58.6 °F 30.39 in Calm     94% 0.00 in
01:29 60.4 °F 58.5 °F 30.38 in Calm     93% 0.00 in
01:34 60.3 °F 58.3 °F 30.39 in Calm     93% 0.00 in
01:39 60.3 °F 58.3 °F 30.38 in Calm     93% 0.00 in
01:44 60.1 °F 58.1 °F 30.38 in Calm     93% 0.00 in
01:49 59.9 °F 57.9 °F 30.38 in Calm     93% 0.00 in
01:55 59.7 °F 57.7 °F 30.38 in Calm     93% 0.00 in
02:01 59.5 °F 57.6 °F 30.38 in Calm     93% 0.00 in
02:06 59.5 °F 57.6 °F 30.38 in Calm     93% 0.00 in
02:11 59.2 °F 57.2 °F 30.38 in Calm     93% 0.00 in
02:17 59.0 °F 57.0 °F 30.38 in Calm     93% 0.00 in
02:22 58.8 °F 56.8 °F 30.38 in Calm     93% 0.00 in
02:27 58.8 °F 56.8 °F 30.38 in Calm     93% 0.00 in
02:32 58.8 °F 57.0 °F 30.38 in Calm     94% 0.00 in
02:37 58.6 °F 56.8 °F 30.38 in Calm     94% 0.00 in
02:43 58.6 °F 56.8 °F 30.39 in Calm     94% 0.00 in
02:48 58.6 °F 56.8 °F 30.39 in Calm     94% 0.00 in
02:54 58.6 °F 56.8 °F 30.39 in Calm     94% 0.00 in
02:59 58.5 °F 56.7 °F 30.39 in Calm     94% 0.00 in
03:04 58.5 °F 56.7 °F 30.39 in Calm     94% 0.00 in
03:10 58.3 °F 56.5 °F 30.39 in Calm     94% 0.00 in
03:15 57.9 °F 56.1 °F 30.39 in Calm     94% 0.00 in
03:21 57.9 °F 56.1 °F 30.39 in Calm     94% 0.00 in
03:27 57.7 °F 55.9 °F 30.39 in Calm     94% 0.00 in
03:32 57.7 °F 55.9 °F 30.39 in Calm     94% 0.00 in
03:37 57.7 °F 55.9 °F 30.39 in Calm     94% 0.00 in
03:43 57.6 °F 55.8 °F 30.39 in Calm     94% 0.00 in
03:48 57.4 °F 55.6 °F 30.39 in Calm     94% 0.00 in
03:54 57.0 °F 55.2 °F 30.39 in Calm     94% 0.00 in
03:59 57.0 °F 55.2 °F 30.39 in Calm     94% 0.00 in
04:05 56.8 °F 55.2 °F 30.39 in Calm     94% 0.00 in
04:10 56.7 °F 55.0 °F 30.39 in Calm     94% 0.00 in
04:15 56.7 °F 55.0 °F 30.40 in Calm     94% 0.00 in
04:20 56.5 °F 55.0 °F 30.40 in Calm     95% 0.00 in
04:25 56.3 °F 54.9 °F 30.40 in Calm     95% 0.00 in
04:31 56.1 °F 54.5 °F 30.40 in Calm     94% 0.00 in
04:36 55.9 °F 54.5 °F 30.40 in Calm     95% 0.00 in
04:41 55.9 °F 54.5 °F 30.40 in Calm     95% 0.00 in
04:47 55.8 °F 54.3 °F 30.40 in Calm     95% 0.00 in
04:52 55.8 °F 54.3 °F 30.40 in Calm     95% 0.00 in
04:57 55.6 °F 54.1 °F 30.39 in Calm     95% 0.00 in
05:03 55.4 °F 54.0 °F 30.39 in Calm     95% 0.00 in
05:09 55.2 °F 53.8 °F 30.39 in Calm     95% 0.00 in
05:14 55.2 °F 53.8 °F 30.39 in Calm     95% 0.00 in
05:20 55.0 °F 53.6 °F 30.39 in Calm     95% 0.00 in
05:26 55.0 °F 53.6 °F 30.39 in Calm     95% 0.00 in
05:31 55.0 °F 53.6 °F 30.39 in Calm     95% 0.00 in
05:37 55.0 °F 53.6 °F 30.39 in Calm     95% 0.00 in
05:43 55.0 °F 53.6 °F 30.39 in Calm     95% 0.00 in
05:48 55.2 °F 54.1 °F 30.39 in Calm     96% 0.00 in
05:53 55.4 °F 54.3 °F 30.39 in Calm     96% 0.00 in
05:58 55.6 °F 54.5 °F 30.39 in Calm     96% 0.00 in
06:03 55.4 °F 54.3 °F 30.39 in Calm     96% 0.00 in
06:08 55.4 °F 54.3 °F 30.40 in Calm     96% 0.00 in
06:13 55.4 °F 54.3 °F 30.39 in Calm     96% 0.00 in
06:19 55.4 °F 54.3 °F 30.40 in Calm     96% 0.00 in
06:24 55.2 °F 54.1 °F 30.39 in Calm     96% 0.00 in
06:29 55.2 °F 54.1 °F 30.40 in Calm     96% 0.00 in
06:35 55.2 °F 53.8 °F 30.39 in Calm     95% 0.00 in
06:40 55.0 °F 53.6 °F 30.40 in Calm     95% 0.00 in
06:45 55.0 °F 53.6 °F 30.40 in Calm     95% 0.00 in
06:51 55.0 °F 53.6 °F 30.40 in Calm     95% 0.00 in
06:56 55.0 °F 53.6 °F 30.40 in Calm     95% 0.00 in
07:02 54.9 °F 53.8 °F 30.40 in Calm     96% 0.00 in
07:07 54.9 °F 53.8 °F 30.40 in Calm     96% 0.00 in
07:13 54.9 °F 53.8 °F 30.40 in Calm     96% 0.00 in
07:18 54.7 °F 53.6 °F 30.40 in Calm     96% 0.00 in
07:24 54.7 °F 53.6 °F 30.40 in Calm     96% 0.00 in
07:29 54.7 °F 53.6 °F 30.40 in Calm     96% 0.00 in
07:34 54.5 °F 53.4 °F 30.40 in Calm     96% 0.00 in
07:39 54.7 °F 53.6 °F 30.40 in Calm     96% 0.00 in
07:45 54.7 °F 53.6 °F 30.40 in Calm     96% 0.00 in
07:50 54.7 °F 53.6 °F 30.40 in Calm     96% 0.00 in
07:56 54.7 °F 53.6 °F 30.41 in Calm     96% 0.00 in
08:01 54.9 °F 53.8 °F 30.41 in Calm     96% 0.00 in
08:07 54.9 °F 53.8 °F 30.40 in Calm     96% 0.00 in
08:12 55.0 °F 54.0 °F 30.41 in Calm     96% 0.00 in
08:18 55.4 °F 54.3 °F 30.41 in Calm     96% 0.00 in
08:23 55.9 °F 54.9 °F 30.41 in Calm     96% 0.00 in
08:28 56.5 °F 55.6 °F 30.41 in Calm     97% 0.00 in
08:33 56.8 °F 55.9 °F 30.41 in Calm     97% 0.00 in
08:39 56.8 °F 55.9 °F 30.41 in Calm     97% 0.00 in
08:45 57.0 °F 56.1 °F 30.41 in Calm     97% 0.00 in
08:50 57.4 °F 56.3 °F 30.41 in Calm     96% 0.00 in
08:55 57.7 °F 56.8 °F 30.41 in Calm     97% 0.00 in
09:00 58.3 °F 57.4 °F 30.41 in Calm     97% 0.00 in
09:06 58.8 °F 57.9 °F 30.41 in Calm     97% 0.00 in
09:11 59.5 °F 58.6 °F 30.42 in Calm     97% 0.00 in
09:16 60.4 °F 59.5 °F 30.41 in Calm     97% 0.00 in
09:21 61.7 °F 60.6 °F 30.42 in Calm   1.0 mph 96% 0.00 in
09:27 63.3 °F 61.5 °F 30.42 in Calm     94% 0.00 in
09:32 64.2 °F 61.5 °F 30.41 in Calm     91% 0.00 in
09:37 65.5 °F 62.2 °F 30.42 in East 2.0 mph 4.0 mph 89% 0.00 in
09:43 66.7 °F 62.8 °F 30.42 in Calm     87% 0.00 in
09:48 67.3 °F 62.6 °F 30.42 in Calm   1.0 mph 85% 0.00 in
09:53 67.6 °F 62.6 °F 30.42 in Calm     84% 0.00 in
09:58 68.0 °F 62.6 °F 30.42 in ESE 0.9 mph 1.0 mph 83% 0.00 in
10:03 68.5 °F 62.8 °F 30.42 in Calm     82% 0.00 in
10:09 69.3 °F 62.8 °F 30.42 in East 0.9 mph 1.0 mph 80% 0.00 in
10:14 69.4 °F 62.6 °F 30.42 in Calm   4.0 mph 79% 0.00 in
10:19 69.6 °F 62.8 °F 30.42 in Calm   2.0 mph 79% 0.00 in
10:24 69.6 °F 62.4 °F 30.42 in Calm   1.0 mph 78% 0.00 in
10:29 70.0 °F 62.8 °F 30.42 in Calm   1.0 mph 78% 0.00 in
10:35 70.2 °F 62.6 °F 30.42 in Calm   5.0 mph 77% 0.00 in
10:40 70.0 °F 62.4 °F 30.42 in Calm   1.0 mph 77% 0.00 in
10:46 70.0 °F 62.8 °F 30.42 in ESE 0.9 mph 1.0 mph 78% 0.00 in
10:51 70.0 °F 62.4 °F 30.42 in Calm   2.0 mph 77% 0.00 in
10:56 70.2 °F 62.6 °F 30.42 in Calm   1.0 mph 77% 0.00 in
11:01 70.3 °F 62.8 °F 30.42 in Calm   1.0 mph 77% 0.00 in
11:06 70.5 °F 63.0 °F 30.42 in Calm     77% 0.00 in
11:11 70.7 °F 63.1 °F 30.42 in NNE 0.9 mph 1.0 mph 77% 0.00 in
11:16 70.5 °F 62.2 °F 30.42 in SSW 0.9 mph 1.0 mph 75% 0.00 in
11:21 70.9 °F 62.6 °F 30.42 in ESE 0.9 mph 1.0 mph 75% 0.00 in
11:27 71.1 °F 62.8 °F 30.42 in Calm   1.0 mph 75% 0.00 in
11:32 71.1 °F 62.8 °F 30.42 in ESE 0.9 mph 1.0 mph 75% 0.00 in
11:37 71.1 °F 62.8 °F 30.42 in Calm   1.0 mph 75% 0.00 in
11:43 70.9 °F 62.6 °F 30.42 in West 0.9 mph 1.0 mph 75% 0.00 in
11:48 70.7 °F 62.4 °F 30.42 in Calm   1.0 mph 75% 0.00 in
11:53 70.9 °F 62.6 °F 30.41 in SE 2.0 mph 2.0 mph 75% 0.00 in
11:58 71.1 °F 62.4 °F 30.41 in Calm   1.0 mph 74% 0.00 in
12:03 71.2 °F 63.0 °F 30.41 in Calm     75% 0.00 in
12:09 71.4 °F 62.2 °F 30.40 in WSW 2.0 mph 2.0 mph 73% 0.00 in
12:14 71.4 °F 62.2 °F 30.40 in Calm   1.0 mph 73% 0.00 in
12:19 71.2 °F 62.6 °F 30.40 in ESE 4.0 mph 4.0 mph 74% 0.00 in
12:24 71.2 °F 63.0 °F 30.40 in WSW 2.9 mph 3.0 mph 75% 0.00 in
12:29 72.0 °F 63.1 °F 30.39 in Calm   2.0 mph 74% 0.00 in
12:34 72.9 °F 63.3 °F 30.39 in Calm   2.0 mph 72% 0.00 in
12:39 72.9 °F 62.4 °F 30.39 in Calm   2.0 mph 70% 0.00 in
12:44 72.9 °F 62.4 °F 30.39 in SE 4.0 mph 4.0 mph 70% 0.00 in
12:50 73.4 °F 62.2 °F 30.38 in ESE 0.9 mph 2.0 mph 68% 0.00 in
12:55 73.8 °F 61.7 °F 30.37 in Calm   5.0 mph 66% 0.00 in
13:00 73.8 °F 61.7 °F 30.37 in SE 4.0 mph 5.0 mph 66% 0.00 in
13:05 73.6 °F 61.9 °F 30.37 in Calm   1.0 mph 67% 0.00 in
13:11 73.8 °F 61.3 °F 30.36 in SE 4.0 mph 6.0 mph 65% 0.00 in
13:16 73.9 °F 61.9 °F 30.36 in Calm   4.0 mph 66% 0.00 in
13:22 74.1 °F 62.1 °F 30.36 in SE 4.9 mph 5.0 mph 66% 0.00 in
13:27 73.9 °F 61.9 °F 30.36 in Calm   1.0 mph 66% 0.00 in
13:32 73.9 °F 61.9 °F 30.35 in NW 2.0 mph 2.0 mph 66% 0.00 in
13:37 74.1 °F 61.5 °F 30.35 in WNW 0.9 mph 1.0 mph 65% 0.00 in
13:42 74.1 °F 61.5 °F 30.35 in Calm   1.0 mph 65% 0.00 in
13:48 73.8 °F 61.7 °F 30.34 in Calm     66% 0.00 in
13:53 73.8 °F 61.7 °F 30.34 in Calm   2.0 mph 66% 0.00 in
13:59 73.8 °F 61.3 °F 30.34 in ESE 0.9 mph 1.0 mph 65% 0.00 in
14:04 73.6 °F 61.5 °F 30.33 in Calm   1.0 mph 66% 0.00 in
14:09 73.6 °F 61.5 °F 30.33 in Calm   1.0 mph 66% 0.00 in
14:14 73.6 °F 61.9 °F 30.33 in Calm   1.0 mph 67% 0.00 in
14:20 73.8 °F 61.3 °F 30.32 in Calm   1.0 mph 65% 0.00 in
14:24 74.1 °F 61.5 °F 30.32 in Calm   1.0 mph 65% 0.00 in
14:30 74.7 °F 61.7 °F 30.31 in Calm     64% 0.00 in
14:35 75.0 °F 60.3 °F 30.31 in ESE 2.0 mph 4.0 mph 60% 0.00 in
14:41 75.6 °F 59.7 °F 30.31 in Calm   2.0 mph 58% 0.00 in
14:46 75.7 °F 59.4 °F 30.31 in Calm   2.0 mph 57% 0.00 in
14:51 75.9 °F 59.2 °F 30.31 in Calm   2.0 mph 56% 0.00 in
14:57 76.5 °F 60.1 °F 30.31 in Calm   2.0 mph 57% 0.00 in
15:02 76.5 °F 60.1 °F 30.31 in Calm   1.0 mph 57% 0.00 in
15:07 76.5 °F 59.5 °F 30.31 in ESE 0.9 mph 1.0 mph 56% 0.00 in
15:12 76.3 °F 59.9 °F 30.31 in Calm   1.0 mph 57% 0.00 in
15:18 75.9 °F 59.5 °F 30.30 in Calm   1.0 mph 57% 0.00 in
15:23 75.9 °F 59.5 °F 30.30 in Calm   1.0 mph 57% 0.00 in
15:28 75.6 °F 59.2 °F 30.30 in Calm   2.0 mph 57% 0.00 in
15:33 75.0 °F 59.2 °F 30.30 in Calm   1.0 mph 58% 0.00 in
15:39 74.7 °F 59.4 °F 30.29 in West 0.9 mph 2.0 mph 59% 0.00 in
15:44 74.7 °F 59.9 °F 30.29 in ESE 0.9 mph 1.0 mph 60% 0.00 in
15:49 75.0 °F 59.7 °F 30.29 in Calm     59% 0.00 in
15:55 75.2 °F 59.4 °F 30.29 in Calm   3.0 mph 58% 0.00 in
16:00 75.2 °F 59.4 °F 30.29 in Calm   1.0 mph 58% 0.00 in
16:06 75.4 °F 59.5 °F 30.29 in East 2.0 mph 4.0 mph 58% 0.00 in
16:11 75.2 °F 59.4 °F 30.29 in Calm     58% 0.00 in
16:17 75.0 °F 59.7 °F 30.29 in Calm     59% 0.00 in
16:22 74.8 °F 59.5 °F 30.28 in Calm   2.0 mph 59% 0.00 in
16:28 74.8 °F 59.5 °F 30.28 in Calm   1.0 mph 59% 0.00 in
16:33 74.8 °F 59.5 °F 30.28 in East 2.0 mph 4.0 mph 59% 0.00 in
16:38 74.8 °F 59.5 °F 30.28 in SSE 0.9 mph 7.0 mph 59% 0.00 in
16:44 75.0 °F 59.7 °F 30.28 in Calm   4.0 mph 59% 0.00 in
16:49 75.0 °F 59.7 °F 30.28 in Calm   2.0 mph 59% 0.00 in
16:55 75.0 °F 59.7 °F 30.28 in Calm   2.0 mph 59% 0.00 in
17:00 74.7 °F 59.9 °F 30.28 in ENE 0.9 mph 1.0 mph 60% 0.00 in
17:05 74.3 °F 59.5 °F 30.29 in Calm     60% 0.00 in
17:11 73.9 °F 59.7 °F 30.28 in Calm   1.0 mph 61% 0.00 in
17:16 73.8 °F 59.9 °F 30.28 in Calm     62% 0.00 in
17:22 73.8 °F 59.5 °F 30.28 in Calm   1.0 mph 61% 0.00 in
17:27 73.6 °F 59.7 °F 30.28 in Calm   4.0 mph 62% 0.00 in
17:32 73.4 °F 59.5 °F 30.28 in Calm   4.0 mph 62% 0.00 in
17:38 73.2 °F 59.9 °F 30.27 in Calm     63% 0.00 in
17:43 73.0 °F 60.1 °F 30.28 in Calm     64% 0.00 in
17:48 72.9 °F 59.5 °F 30.28 in Calm     63% 0.00 in
17:53 72.5 °F 59.5 °F 30.27 in Calm     64% 0.00 in
17:58 72.1 °F 59.4 °F 30.28 in Calm   1.0 mph 64% 0.00 in
18:04 71.8 °F 59.4 °F 30.28 in Calm     65% 0.00 in
18:09 71.6 °F 59.2 °F 30.28 in Calm     65% 0.00 in
18:14 71.2 °F 59.4 °F 30.28 in Calm     66% 0.00 in
18:20 71.1 °F 59.2 °F 30.28 in Calm     66% 0.00 in
18:25 70.9 °F 59.7 °F 30.28 in Calm     68% 0.00 in
18:31 70.3 °F 59.4 °F 30.28 in Calm     68% 0.00 in
18:36 70.0 °F 59.4 °F 30.28 in Calm     69% 0.00 in
18:41 69.4 °F 59.2 °F 30.28 in Calm     70% 0.00 in
18:46 69.1 °F 59.4 °F 30.28 in Calm     71% 0.00 in
18:52 68.5 °F 59.2 °F 30.28 in Calm     72% 0.00 in
18:57 68.0 °F 59.0 °F 30.27 in Calm     73% 0.00 in
19:03 67.5 °F 58.8 °F 30.28 in Calm     74% 0.00 in
19:08 66.9 °F 58.8 °F 30.28 in Calm     75% 0.00 in
19:13 66.6 °F 58.8 °F 30.28 in Calm     76% 0.00 in
19:18 66.4 °F 58.6 °F 30.28 in Calm     76% 0.00 in
Ellijay Weather
Compliments of Weather Underground - 2.25 mb